Search for airport 
image banner adimage banner adimage banner ad
image banner ad

FNME - Menongue

Located in , Angola

ICAO - FNME, IATA - SPP

Data provided by Airmate  

General information

Coordinates: S14°39'27" E17°43'11"
Elevation is 4691 feet MSL.
 
View others Airports in Cuando Cubango Province

Operational data

Special qualification required
Current time UTC:
Current local time:
Weather
TAF: TAF FNME 191100Z 1912/1924 09008KT 9999 SCT025 FEW028CB PROB30 1913/1918 7000 TS
View NOTAMs / SUP AIP / TFR affecting this airport [VIEW]
Communications frequencies: [VIEW]

Runways:

RWY identifierQFULength (ft)Width (ft)SurfaceLDA (ft)
13118°11483148ASP
31298°11483148

Airport contact information

Address: Angola

Satellite view of FNME